Time;durP1;ratioP1;P1;durP2;ratioP2;P2;SDS_P1;SDS_P2;PMS_P1;PMS_P2;Temp;Humidity;BMP_temperature;BMP_pressure;BME280_temperature;BME280_humidity;BME280_pressure;Samples;Min_cycle;Max_cycle;Signal;HPM_P1;HPM_P2
2021/08/09 00:00:39;;;;;;;3.25;1.80;;;;;;;19.23;53.55;101280.31;4972845;28;113606;-69
2021/08/09 00:03:07;;;;;;;5.80;2.13;;;;;;;19.21;53.54;101289.44;4972242;28;124085;-69
2021/08/09 00:05:34;;;;;;;2.92;1.80;;;;;;;19.18;53.88;101282.47;4991189;28;123976;-68
2021/08/09 00:08:03;;;;;;;6.10;2.35;;;;;;;19.15;53.68;101282.69;4977308;28;114399;-68
2021/08/09 00:10:31;;;;;;;4.30;2.10;;;;;;;19.14;53.87;101281.00;4972925;28;113870;-69
2021/08/09 00:12:58;;;;;;;5.30;2.03;;;;;;;19.11;53.93;101280.34;4955544;28;124541;-69
2021/08/09 00:15:26;;;;;;;4.40;2.10;;;;;;;19.09;53.90;101285.84;4975229;28;124827;-68
2021/08/09 00:17:53;;;;;;;4.68;2.00;;;;;;;19.04;53.71;101286.19;4984163;28;114329;-68
2021/08/09 00:20:20;;;;;;;5.35;1.90;;;;;;;19.01;54.12;101288.22;4974884;28;113801;-68
2021/08/09 00:22:47;;;;;;;4.95;2.00;;;;;;;18.98;54.15;101288.44;4972785;28;123933;-68
2021/08/09 00:25:15;;;;;;;3.65;1.90;;;;;;;18.96;53.99;101290.38;4972601;28;124223;-68
2021/08/09 00:27:42;;;;;;;5.18;1.90;;;;;;;18.92;54.21;101286.22;4985834;28;114229;-68
2021/08/09 00:30:10;;;;;;;4.32;2.13;;;;;;;18.91;54.10;101289.88;4973061;28;114108;-69
2021/08/09 00:32:38;;;;;;;5.72;1.92;;;;;;;18.89;54.17;101286.44;4968145;28;122947;-68
2021/08/09 00:35:06;;;;;;;6.57;2.00;;;;;;;18.86;54.08;101293.75;4980185;28;123117;-68
2021/08/09 00:37:35;;;;;;;4.15;1.85;;;;;;;18.85;54.25;101292.06;4959626;28;114598;-68
2021/08/09 00:40:04;;;;;;;8.52;2.17;;;;;;;18.82;54.23;101291.41;4957461;28;114172;-68
2021/08/09 00:42:31;;;;;;;6.10;1.92;;;;;;;18.80;54.13;101287.94;4956941;28;123025;-69
2021/08/09 00:44:59;;;;;;;5.53;1.90;;;;;;;18.76;54.36;101292.69;4960195;28;122934;-68
2021/08/09 00:47:26;;;;;;;4.72;1.80;;;;;;;18.75;54.35;101290.94;4962684;28;114005;-69
2021/08/09 00:49:53;;;;;;;4.22;1.88;;;;;;;18.74;54.43;101294.63;4971752;28;113569;-69
2021/08/09 00:52:22;;;;;;;4.88;2.00;;;;;;;18.73;54.29;101298.25;4973351;28;123404;-68
2021/08/09 00:54:52;;;;;;;4.95;2.00;;;;;;;18.69;54.27;101296.78;4971294;28;124173;-69
2021/08/09 00:57:20;;;;;;;5.45;1.98;;;;;;;18.67;54.50;101293.34;4957114;28;113408;-68
2021/08/09 00:59:47;;;;;;;5.03;2.15;;;;;;;18.67;54.48;101299.56;4956610;28;113109;-68
2021/08/09 01:02:15;;;;;;;7.22;2.10;;;;;;;18.66;54.51;101296.97;4955710;28;123792;-68
2021/08/09 01:04:44;;;;;;;4.13;1.70;;;;;;;18.65;54.71;101300.66;4967205;28;123477;-68
2021/08/09 01:07:12;;;;;;;4.75;1.90;;;;;;;18.63;54.83;101297.22;4945625;28;113552;-68
2021/08/09 01:10:00;;;;;;;5.10;2.20;;;;;;;18.61;54.76;101304.50;4968559;28;113096;-69
2021/08/09 01:12:45;;;;;;;7.68;2.10;;;;;;;18.59;54.92;101306.44;4955747;28;123304;-69
2021/08/09 01:15:22;;;;;;;4.85;2.13;;;;;;;18.57;54.88;101303.00;4955539;28;123273;-68
2021/08/09 01:17:55;;;;;;;5.65;2.10;;;;;;;18.55;54.81;101311.16;4957072;28;113685;-69
2021/08/09 01:20:49;;;;;;;4.30;1.80;;;;;;;18.52;54.70;101306.03;4971762;28;114643;-69
2021/08/09 01:23:28;;;;;;;9.93;2.35;;;;;;;18.51;54.92;101308.81;4956322;28;123158;-69
2021/08/09 01:26:03;;;;;;;4.07;1.98;;;;;;;18.49;54.78;101312.44;4956886;28;124277;-68
2021/08/09 01:28:32;;;;;;;;;;;;;;;18.45;54.51;101315.47;4956623;28;114512;-69
2021/08/09 01:31:01;;;;;;;5.80;1.92;;;;;;;18.45;54.50;101321.69;4956805;28;113902;-68
2021/08/09 01:33:34;;;;;;;6.72;2.70;;;;;;;18.43;54.66;101312.88;4955955;28;123131;-68
2021/08/09 01:36:03;;;;;;;5.88;1.95;;;;;;;18.40;54.78;101318.50;4955832;28;122960;-68
2021/08/09 01:38:32;;;;;;;5.72;2.20;;;;;;;18.38;54.89;101320.41;4953350;28;113298;-68
2021/08/09 01:41:01;;;;;;;4.90;1.90;;;;;;;18.37;55.03;101318.69;4978170;28;113543;-69
2021/08/09 01:43:33;;;;;;;6.25;2.25;;;;;;;18.36;54.97;101316.97;4962465;28;123215;-68
2021/08/09 01:46:01;;;;;;;4.28;1.83;;;;;;;18.35;55.10;101309.91;4973441;28;124214;-68
2021/08/09 01:48:30;;;;;;;4.78;2.05;;;;;;;18.33;55.08;101317.19;4956600;28;113952;-68
2021/08/09 01:50:58;;;;;;;5.55;2.13;;;;;;;18.30;55.19;101312.03;4956312;28;113142;-68
2021/08/09 01:53:28;;;;;;;4.28;2.28;;;;;;;18.28;55.07;101325.56;4955326;28;123607;-68
2021/08/09 01:55:55;;;;;;;5.45;1.90;;;;;;;18.28;55.21;101330.06;4954870;28;122639;-68
2021/08/09 01:58:25;;;;;;;5.65;2.30;;;;;;;18.25;55.21;101323.09;4956217;28;113425;-68
2021/08/09 02:00:54;;;;;;;7.60;2.20;;;;;;;18.25;55.22;101322.22;4955859;28;113291;-69
2021/08/09 02:03:22;;;;;;;5.25;1.95;;;;;;;18.25;55.32;101319.53;4942315;28;123009;-69
2021/08/09 02:05:49;;;;;;;4.07;2.00;;;;;;;18.25;55.13;101324.91;4955228;28;122743;-69
2021/08/09 02:08:17;;;;;;;6.82;2.20;;;;;;;18.26;55.25;101315.91;4943820;28;113333;-68
2021/08/09 02:10:53;;;;;;;7.05;1.95;;;;;;;18.26;55.29;101321.28;4965088;28;113156;-68
2021/08/09 02:13:32;;;;;;;7.07;1.90;;;;;;;18.26;55.27;101327.47;4953195;28;123262;-68
2021/08/09 02:16:06;;;;;;;5.32;1.70;;;;;;;18.25;55.42;101327.59;4955447;28;123079;-68
2021/08/09 02:18:46;;;;;;;4.82;2.10;;;;;;;18.25;55.27;101330.28;4954786;28;119469;-69
2021/08/09 02:21:22;;;;;;;5.22;1.90;;;;;;;18.22;55.32;101326.00;4984108;22;114118;-73
2021/08/09 02:23:57;;;;;;;5.15;1.98;;;;;;;18.20;55.15;101327.06;4988298;28;123254;-74
2021/08/09 02:26:30;;;;;;;4.13;1.77;;;;;;;18.18;55.25;101324.50;4988611;28;122903;-72
2021/08/09 02:29:08;;;;;;;6.78;1.95;;;;;;;18.15;55.29;101318.47;4990291;28;113267;-72
2021/08/09 02:31:37;;;;;;;5.18;2.17;;;;;;;18.15;55.44;101318.47;4983933;28;113946;-72
2021/08/09 02:34:06;;;;;;;4.78;2.20;;;;;;;18.14;55.44;101322.13;4989841;28;123253;-72
2021/08/09 02:36:34;;;;;;;5.22;2.10;;;;;;;18.14;55.35;101327.47;4989592;28;123251;-72
2021/08/09 02:39:02;;;;;;;3.38;1.75;;;;;;;18.12;55.35;101324.94;4989406;28;113079;-72
2021/08/09 02:41:30;;;;;;;7.15;2.15;;;;;;;18.09;55.51;101325.97;4989600;28;113057;-72
2021/08/09 02:43:57;;;;;;;7.57;2.72;;;;;;;18.09;55.74;101325.97;4988211;28;123768;-72
2021/08/09 02:46:26;;;;;;;8.10;2.47;;;;;;;18.09;55.64;101331.34;4989091;28;123018;-72
2021/08/09 02:48:54;;;;;;;6.80;2.47;;;;;;;18.09;55.41;101331.34;4988976;28;113412;-72
2021/08/09 02:51:22;;;;;;;5.05;2.13;;;;;;;18.11;55.68;101316.97;4973709;28;113040;-72
2021/08/09 02:53:50;;;;;;;3.63;2.25;;;;;;;18.10;55.73;101321.47;4988502;28;123579;-72
2021/08/09 02:56:23;;;;;;;7.05;2.10;;;;;;;18.07;55.89;101322.53;4990230;28;123407;-72
2021/08/09 02:58:52;;;;;;;4.22;2.03;;;;;;;18.09;55.71;101315.25;4989258;28;113300;-72
2021/08/09 03:01:19;;;;;;;4.07;2.28;;;;;;;18.09;55.82;101315.25;4978410;28;114114;-72
2021/08/09 03:03:50;;;;;;;6.55;2.30;;;;;;;18.10;55.75;101316.09;4986391;28;122625;-74
2021/08/09 03:06:18;;;;;;;6.22;2.20;;;;;;;18.09;55.87;101315.25;4975234;28;124025;-72
2021/08/09 03:08:46;;;;;;;5.13;2.03;;;;;;;18.10;55.69;101316.09;4982641;28;115177;-72
2021/08/09 03:11:14;;;;;;;6.28;2.17;;;;;;;18.12;56.02;101313.31;4989783;28;114066;-72
2021/08/09 03:13:49;;;;;;;6.28;2.05;;;;;;;18.11;55.91;101316.97;4976956;28;124037;-72
2021/08/09 03:16:16;;;;;;;4.38;1.95;;;;;;;18.08;55.91;101313.56;4990820;28;123924;-72
2021/08/09 03:18:44;;;;;;;3.85;1.88;;;;;;;18.09;55.96;101325.97;4987869;28;113394;-72
2021/08/09 03:21:11;;;;;;;7.85;2.78;;;;;;;18.10;56.05;101326.81;4973540;28;113217;-72
2021/08/09 03:23:40;;;;;;;6.60;2.17;;;;;;;18.11;55.83;101316.97;4988594;28;122912;-72
2021/08/09 03:26:07;;;;;;;4.43;1.83;;;;;;;18.11;55.90;101328.56;4989045;28;122978;-72
2021/08/09 03:28:36;;;;;;;6.93;1.90;;;;;;;18.13;56.03;101331.13;4991088;28;114962;-72
2021/08/09 03:31:05;;;;;;;4.80;2.20;;;;;;;18.13;56.21;101336.50;4990994;28;113355;-72
2021/08/09 03:33:32;;;;;;;5.93;2.13;;;;;;;18.13;56.21;101331.13;5002583;28;123231;-72
2021/08/09 03:36:00;;;;;;;9.02;2.10;;;;;;;18.13;56.08;101336.50;4991226;28;124570;-72
2021/08/09 03:38:28;;;;;;;6.78;2.33;;;;;;;18.12;56.20;101335.66;4991333;28;113099;-72
2021/08/09 03:40:55;;;;;;;5.85;2.28;;;;;;;18.14;56.05;101332.84;4976151;28;113188;-72
2021/08/09 03:43:22;;;;;;;5.78;1.98;;;;;;;18.16;56.12;101336.25;4989417;28;123023;-72
2021/08/09 03:45:50;;;;;;;5.28;1.90;;;;;;;18.17;56.29;101346.03;4969799;28;122922;-72
2021/08/09 03:48:17;;;;;;;4.70;2.03;;;;;;;18.16;56.15;101336.25;4980773;28;113534;-72
2021/08/09 03:50:44;;;;;;;8.13;2.20;;;;;;;18.17;56.27;101338.00;4989053;28;113473;-72
2021/08/09 03:53:11;;;;;;;5.95;2.33;;;;;;;18.16;56.20;101336.25;4990360;28;124755;-73
2021/08/09 03:55:38;;;;;;;5.05;2.47;;;;;;;18.14;56.22;101327.47;4986396;28;122082;-72
2021/08/09 03:58:06;;;;;;;6.13;2.25;;;;;;;18.14;56.21;101327.47;4976373;28;113741;-71
2021/08/09 04:00:33;;;;;;;3.92;2.28;;;;;;;18.14;56.27;101332.84;4989433;28;115037;-72
2021/08/09 04:03:01;;;;;;;6.55;2.22;;;;;;;18.14;56.46;101327.47;4958204;28;123878;-72
2021/08/09 04:05:34;;;;;;;5.90;2.40;;;;;;;18.15;56.47;101330.06;4988099;28;124008;-72
2021/08/09 04:08:01;;;;;;;3.67;2.00;;;;;;;18.16;56.43;101337.16;4986751;28;114681;-72
2021/08/09 04:10:28;;;;;;;3.35;2.00;;;;;;;18.18;56.51;101345.09;4978884;28;112817;-71
2021/08/09 04:12:55;;;;;;;5.22;2.30;;;;;;;18.18;56.40;101345.09;4986878;28;123916;-72
2021/08/09 04:15:25;;;;;;;5.47;2.33;;;;;;;18.19;56.41;101336.06;4987327;28;123606;-72
2021/08/09 04:17:52;;;;;;;7.78;2.38;;;;;;;18.20;56.50;101337.78;4988113;28;113468;-72
2021/08/09 04:20:19;;;;;;;5.90;2.30;;;;;;;18.21;56.48;101344.84;4973249;28;112814;-72
2021/08/09 04:22:47;;;;;;;5.78;2.42;;;;;;;18.21;56.81;101340.34;4964946;28;123443;-72
2021/08/09 04:25:15;;;;;;;5.97;2.30;;;;;;;18.22;56.56;101346.59;4987211;28;123091;-72
2021/08/09 04:27:42;;;;;;;5.97;2.30;;;;;;;18.22;56.55;101351.94;4988755;28;113935;-74
2021/08/09 04:30:10;;;;;;;4.53;2.13;;;;;;;18.24;56.46;101344.66;4975018;28;113045;-71
2021/08/09 04:32:45;;;;;;;5.40;2.50;;;;;;;18.25;56.50;101351.72;4981400;28;124467;-72
2021/08/09 04:35:15;;;;;;;9.77;2.25;;;;;;;18.26;56.78;101353.44;4987043;28;123097;-72
2021/08/09 04:37:46;;;;;;;9.85;2.55;;;;;;;18.28;56.42;101356.88;4990925;28;113761;-72
2021/08/09 04:40:14;;;;;;;5.85;2.35;;;;;;;18.29;56.47;101359.47;4991740;28;113197;-72
2021/08/09 04:42:42;;;;;;;7.07;2.30;;;;;;;18.29;56.43;101354.09;4990737;28;123572;-72
2021/08/09 04:45:12;;;;;;;4.13;2.20;;;;;;;18.29;56.61;101359.47;4991051;28;123051;-72
2021/08/09 04:47:40;;;;;;;4.13;2.08;;;;;;;18.33;56.72;101368.16;4992369;28;115344;-72
2021/08/09 04:50:09;;;;;;;4.60;2.00;;;;;;;18.34;56.70;101367.16;4964088;28;114283;-72
2021/08/09 04:52:42;;;;;;;4.50;2.20;;;;;;;18.36;56.67;101365.25;4989060;28;124552;-72
2021/08/09 04:55:13;;;;;;;6.60;2.30;;;;;;;18.37;56.78;101366.97;4991465;28;124056;-72
2021/08/09 04:57:41;;;;;;;5.75;2.33;;;;;;;18.36;56.66;101362.56;4975253;28;113310;-72
2021/08/09 05:00:10;;;;;;;7.18;2.40;;;;;;;18.39;56.77;101367.72;4991828;28;112863;-72
2021/08/09 05:02:39;;;;;;;6.95;2.45;;;;;;;18.41;56.83;101367.63;4990120;28;123533;-72
2021/08/09 05:05:10;;;;;;;4.75;2.38;;;;;;;18.42;56.94;101359.47;4992360;28;123891;-72
2021/08/09 05:07:38;;;;;;;6.22;2.20;;;;;;;18.44;56.86;101362.91;4997202;28;113270;-72
2021/08/09 05:10:07;;;;;;;5.15;2.10;;;;;;;18.46;56.67;101355.59;4997655;28;113191;-72
2021/08/09 05:12:35;;;;;;;5.13;2.15;;;;;;;18.47;56.79;101346.56;4980512;28;123487;-72
2021/08/09 05:15:06;;;;;;;5.32;2.10;;;;;;;18.50;56.84;101356.25;4990867;28;121990;-73
2021/08/09 05:17:34;;;;;;;5.70;2.10;;;;;;;18.53;56.80;101357.84;4991550;28;113204;-72
2021/08/09 05:20:04;;;;;;;6.18;2.00;;;;;;;18.53;56.85;101356.00;4988222;28;112941;-72
2021/08/09 05:22:33;;;;;;;5.22;2.05;;;;;;;18.56;57.04;101354.97;4973663;28;122220;-72
2021/08/09 05:25:00;;;;;;;5.47;2.20;;;;;;;18.58;56.81;101358.38;4977302;28;123184;-73
2021/08/09 05:27:27;;;;;;;5.43;2.10;;;;;;;18.61;56.67;101360.84;4984503;28;114961;-73
2021/08/09 05:29:54;;;;;;;5.38;2.10;;;;;;;18.61;56.87;101358.16;4974395;28;111839;-72
2021/08/09 05:32:21;;;;;;;3.03;1.83;;;;;;;18.64;56.89;101364.16;4981730;28;124826;-72
2021/08/09 05:34:48;;;;;;;6.30;2.17;;;;;;;18.66;56.76;101366.75;4979180;28;123323;-72
2021/08/09 05:37:16;;;;;;;5.72;2.10;;;;;;;18.68;56.84;101375.53;4990481;28;114749;-72
2021/08/09 05:39:43;;;;;;;6.18;2.10;;;;;;;18.70;57.09;101373.59;4991134;28;114256;-72
2021/08/09 05:42:10;;;;;;;6.97;2.10;;;;;;;18.73;56.85;101378.75;4959817;28;123154;-72
2021/08/09 05:44:37;;;;;;;3.90;2.05;;;;;;;18.75;56.99;101371.47;4991615;28;123696;-72
2021/08/09 05:47:05;;;;;;;4.45;2.03;;;;;;;18.77;57.02;101369.53;4989818;28;112881;-72
2021/08/09 05:49:33;;;;;;;7.20;2.30;;;;;;;18.80;56.88;101363.97;4990566;28;113052;-72
2021/08/09 05:52:01;;;;;;;5.00;1.98;;;;;;;18.83;56.88;101363.75;4990088;28;123391;-72
2021/08/09 05:54:28;;;;;;;5.70;2.08;;;;;;;18.86;56.97;101368.91;4973794;28;123741;-73
2021/08/09 05:56:55;;;;;;;6.03;2.25;;;;;;;18.91;57.06;101370.38;4991184;28;113490;-72
2021/08/09 05:59:22;;;;;;;5.40;1.80;;;;;;;18.96;57.08;101368.25;4990233;28;112762;-72
2021/08/09 06:01:50;;;;;;;5.57;2.17;;;;;;;19.00;56.86;101375.09;4989974;28;123209;-72
2021/08/09 06:04:22;;;;;;;9.40;2.30;;;;;;;19.04;57.01;101376.59;4974426;28;123456;-72
2021/08/09 06:06:49;;;;;;;5.95;2.13;;;;;;;19.06;56.83;101380.00;4988922;28;113520;-72
2021/08/09 06:09:20;;;;;;;7.70;2.60;;;;;;;19.09;56.97;101377.13;4975135;28;113245;-72
2021/08/09 06:11:48;;;;;;;3.80;2.00;;;;;;;19.14;56.90;101376.81;4975594;28;123831;-73
2021/08/09 06:14:16;;;;;;;4.63;2.03;;;;;;;19.16;56.99;101381.09;4968241;28;123212;-72
2021/08/09 06:16:43;;;;;;;5.43;2.30;;;;;;;19.18;56.92;101389.88;4970173;28;113306;-72
2021/08/09 06:19:14;;;;;;;5.55;2.20;;;;;;;19.21;56.79;101373.56;4984673;28;113151;-72
2021/08/09 06:21:41;;;;;;;5.35;2.58;;;;;;;19.24;56.89;101389.41;4971402;28;123112;-72
2021/08/09 06:24:10;;;;;;;4.05;2.20;;;;;;;19.26;56.79;101384.78;4989678;28;123004;-72
2021/08/09 06:26:41;;;;;;;5.22;2.20;;;;;;;19.28;56.86;101389.22;4987924;28;114330;-73
2021/08/09 06:29:08;;;;;;;7.68;2.35;;;;;;;19.31;56.70;101389.84;4983463;28;115004;-72
2021/08/09 06:31:37;;;;;;;3.90;2.17;;;;;;;19.33;56.67;101387.06;4988916;28;124118;-72
2021/08/09 06:34:04;;;;;;;7.70;2.28;;;;;;;19.34;56.59;101394.97;4989512;28;123713;-73
2021/08/09 06:36:35;;;;;;;3.58;2.03;;;;;;;19.36;56.75;101400.25;4990344;28;113638;-72
2021/08/09 06:39:03;;;;;;;5.03;2.10;;;;;;;19.37;56.77;101393.91;4989555;28;113166;-72
2021/08/09 06:41:34;;;;;;;5.13;2.15;;;;;;;19.38;56.78;101390.25;4989532;28;123206;-72
2021/08/09 06:44:14;;;;;;;5.55;2.00;;;;;;;19.40;56.68;101399.03;4984114;28;123610;-72
2021/08/09 06:46:42;;;;;;;5.22;2.38;;;;;;;19.43;56.61;101394.31;4982164;28;113431;-72
2021/08/09 06:49:10;;;;;;;4.78;2.17;;;;;;;19.48;56.79;101391.28;4977145;28;114338;-72
2021/08/09 06:51:37;;;;;;;5.57;2.28;;;;;;;19.53;56.93;101391.78;4988511;28;123500;-73
2021/08/09 06:54:04;;;;;;;4.13;2.10;;;;;;;19.59;56.95;101396.72;4990255;28;124479;-72
2021/08/09 06:56:33;;;;;;;5.07;2.30;;;;;;;19.64;56.80;101399.91;4989881;28;113461;-72
2021/08/09 06:59:01;;;;;;;6.13;2.42;;;;;;;19.69;56.77;101393.34;4972818;28;113049;-73
2021/08/09 07:01:28;;;;;;;3.92;2.03;;;;;;;19.73;56.67;101400.25;4981361;28;123791;-72
2021/08/09 07:03:56;;;;;;;4.53;2.00;;;;;;;19.78;56.76;101400.75;4969186;28;123444;-72
2021/08/09 07:06:24;;;;;;;6.30;2.22;;;;;;;19.82;56.71;101388.81;4989484;28;113198;-72
2021/08/09 07:08:54;;;;;;;6.45;2.28;;;;;;;19.89;56.81;101387.38;4980575;28;112905;-72
2021/08/09 07:11:22;;;;;;;6.38;2.30;;;;;;;19.98;56.92;101400.09;4970385;28;123491;-72
2021/08/09 07:13:52;;;;;;;4.72;2.03;;;;;;;20.10;56.63;101395.63;4989261;28;123213;-72
2021/08/09 07:16:25;;;;;;;6.25;2.40;;;;;;;20.18;56.56;101389.66;4988528;28;115205;-73
2021/08/09 07:18:54;;;;;;;3.28;2.05;;;;;;;20.25;56.46;101396.28;4989509;28;114193;-72
2021/08/09 07:21:24;;;;;;;6.85;2.20;;;;;;;20.31;56.39;101395.81;4988059;28;123589;-72
2021/08/09 07:23:53;;;;;;;6.15;2.38;;;;;;;20.38;56.27;101386.28;4988766;28;123138;-72
2021/08/09 07:26:20;;;;;;;4.70;2.05;;;;;;;20.50;56.44;101394.38;4978723;28;113383;-72
2021/08/09 07:28:48;;;;;;;4.05;1.98;;;;;;;20.65;56.58;101395.88;4961988;28;112945;-72
2021/08/09 07:31:16;;;;;;;6.53;2.17;;;;;;;20.80;56.37;101391.97;4961421;28;122985;-72
2021/08/09 07:33:46;;;;;;;3.08;2.13;;;;;;;20.96;56.08;101396.13;4988935;28;123182;-72
2021/08/09 07:36:14;;;;;;;3.90;1.88;;;;;;;21.11;55.97;101394.88;4989288;28;114259;-72
2021/08/09 07:38:41;;;;;;;4.18;1.77;;;;;;;21.26;55.90;101397.31;4988807;28;113282;-72
2021/08/09 07:41:10;;;;;;;4.32;1.95;;;;;;;21.42;55.54;101400.50;4988557;28;123857;-72
2021/08/09 07:43:38;;;;;;;6.88;2.10;;;;;;;21.55;55.26;101398.53;4987740;28;122975;-72
2021/08/09 07:46:06;;;;;;;3.80;1.75;;;;;;;21.70;55.24;101400.91;4989372;28;113703;-72
2021/08/09 07:48:33;;;;;;;3.97;1.85;;;;;;;21.83;55.37;101403.44;4991368;28;114247;-72
2021/08/09 07:51:01;;;;;;;3.42;1.70;;;;;;;21.97;54.83;101403.16;4974201;28;123262;-72
2021/08/09 07:53:29;;;;;;;3.20;1.80;;;;;;;22.11;54.68;101400.16;4989410;28;123269;-73
2021/08/09 07:55:56;;;;;;;3.83;1.58;;;;;;;22.24;54.59;101404.47;4988962;28;114012;-73
2021/08/09 07:58:23;;;;;;;3.60;1.90;;;;;;;22.33;53.97;101409.13;4990903;28;113699;-72
2021/08/09 08:00:53;;;;;;;4.07;1.75;;;;;;;22.37;53.79;101409.72;4986062;28;124231;-72
2021/08/09 08:03:21;;;;;;;3.40;1.60;;;;;;;22.38;53.39;101406.00;4979476;28;123949;-73
2021/08/09 08:05:49;;;;;;;4.90;2.00;;;;;;;22.38;53.18;101411.41;4988174;28;114084;-73
2021/08/09 08:08:16;;;;;;;4.28;1.85;;;;;;;22.37;53.26;101410.56;4972688;28;114121;-73
2021/08/09 08:10:44;;;;;;;3.40;1.70;;;;;;;22.37;52.99;101409.72;4988414;28;122232;-73
2021/08/09 08:13:11;;;;;;;3.90;1.90;;;;;;;22.40;53.21;101404.91;4992500;28;124233;-73
2021/08/09 08:15:39;;;;;;;3.80;1.80;;;;;;;22.48;53.44;101406.94;4983009;28;113267;-72
2021/08/09 08:18:08;;;;;;;3.50;1.70;;;;;;;22.57;53.22;101400.75;4989980;28;112235;-73
2021/08/09 08:20:35;;;;;;;4.22;1.63;;;;;;;22.66;53.10;101399.94;4991402;28;123952;-73
2021/08/09 08:23:04;;;;;;;5.22;1.70;;;;;;;22.76;52.91;101399.13;4993486;28;124008;-73
2021/08/09 08:25:33;;;;;;;3.55;1.75;;;;;;;22.84;53.04;101408.25;4979083;28;113353;-73
2021/08/09 08:28:01;;;;;;;3.67;1.70;;;;;;;22.93;52.83;101398.50;4992661;28;113045;-72
2021/08/09 08:30:28;;;;;;;4.88;1.73;;;;;;;23.04;52.95;101397.59;4991541;28;123169;-73
2021/08/09 08:33:03;;;;;;;4.10;1.70;;;;;;;23.16;52.51;101392.91;4965405;28;123112;-73
2021/08/09 08:35:31;;;;;;;6.40;1.80;;;;;;;23.26;52.18;101401.91;4991454;28;114137;-72
2021/08/09 08:37:58;;;;;;;5.10;1.80;;;;;;;23.30;51.94;101393.38;4997231;28;113046;-73
2021/08/09 08:40:29;;;;;;;2.45;1.50;;;;;;;23.39;52.21;101401.66;4996976;28;123450;-73
2021/08/09 08:42:57;;;;;;;3.30;1.40;;;;;;;23.50;52.25;101394.25;4993422;28;123105;-73
2021/08/09 08:45:24;;;;;;;3.50;1.70;;;;;;;23.61;51.71;101393.28;4990739;28;113447;-73
2021/08/09 08:47:58;;;;;;;3.05;1.50;;;;;;;23.65;51.38;101391.16;4991205;28;113284;-71
2021/08/09 08:50:32;;;;;;;2.65;1.40;;;;;;;23.68;51.34;101396.28;4980053;28;122708;-72
2021/08/09 08:52:59;;;;;;;3.47;1.65;;;;;;;23.73;51.27;101394.00;4993074;28;124145;-71
2021/08/09 08:55:26;;;;;;;3.63;1.40;;;;;;;23.82;51.07;101395.88;4961242;28;114576;-71
2021/08/09 08:57:53;;;;;;;2.30;1.50;;;;;;;23.90;51.10;101385.22;4992867;28;114855;-71
2021/08/09 09:00:21;;;;;;;3.55;1.42;;;;;;;23.98;50.99;101397.16;4980297;28;124681;-71
2021/08/09 09:02:48;;;;;;;3.58;1.48;;;;;;;24.08;50.42;101392.59;4976551;28;124710;-71
2021/08/09 09:05:20;;;;;;;3.17;1.48;;;;;;;24.11;50.18;101397.75;4984297;28;114286;-71
2021/08/09 09:07:50;;;;;;;1.88;1.13;;;;;;;24.14;49.91;101397.44;4989906;28;113728;-72
2021/08/09 09:10:24;;;;;;;2.70;1.30;;;;;;;24.18;50.16;101398.84;4982808;28;122733;-71
2021/08/09 09:13:08;;;;;;;4.85;1.48;;;;;;;24.21;50.16;101395.88;4993014;28;123987;-71
2021/08/09 09:15:59;;;;;;;3.20;1.20;;;;;;;24.23;49.76;101399.28;4973989;28;114203;-71
2021/08/09 09:18:42;;;;;;;5.78;1.20;;;;;;;24.23;49.66;101402.00;4986900;28;114085;-72
2021/08/09 09:21:33;;;;;;;4.03;1.50;;;;;;;24.28;49.85;101405.13;4987014;28;123812;-71
2021/08/09 09:24:15;;;;;;;3.63;1.35;;;;;;;24.39;49.97;101395.13;4977798;28;121997;-71
2021/08/09 09:26:45;;;;;;;4.07;1.50;;;;;;;24.49;49.67;101395.97;4980301;28;114091;-71
2021/08/09 09:29:16;;;;;;;4.63;1.20;;;;;;;24.57;49.66;101398.81;4991083;28;112640;-70
2021/08/09 09:31:45;;;;;;;3.33;1.48;;;;;;;24.67;49.81;101398.78;4980358;28;124843;-71
2021/08/09 09:34:15;;;;;;;2.42;1.40;;;;;;;24.79;49.59;101402.16;4991203;28;124197;-71
2021/08/09 09:36:50;;;;;;;3.20;1.38;;;;;;;24.88;49.35;101390.41;4990726;28;113235;-71
2021/08/09 09:39:30;;;;;;;;;;;;;;;24.96;50.20;101404.09;4993624;28;114040;-70
2021/08/09 09:42:00;;;;;;;4.07;1.20;;;;;;;25.08;48.88;101401.19;4990086;28;123110;-70
2021/08/09 09:44:30;;;;;;;3.28;1.08;;;;;;;25.11;48.79;101395.44;4990539;28;123976;-71
2021/08/09 09:47:21;;;;;;;3.75;1.20;;;;;;;25.09;48.38;101397.47;4991726;28;116066;-71
2021/08/09 09:49:59;;;;;;;3.20;1.20;;;;;;;25.06;48.31;101399.47;4989728;28;114646;-71
2021/08/09 09:52:32;;;;;;;2.53;0.82;;;;;;;25.08;48.49;101406.59;4989521;28;123537;-70
2021/08/09 09:55:01;;;;;;;3.00;1.10;;;;;;;25.08;47.90;101401.19;4995153;28;123734;-70
2021/08/09 09:57:33;;;;;;;4.63;1.00;;;;;;;25.04;47.88;101401.47;4991663;28;114789;-70
2021/08/09 10:00:02;;;;;;;2.63;1.00;;;;;;;25.00;47.75;101397.38;4992734;28;113324;-70
2021/08/09 10:02:43;;;;;;;3.28;1.10;;;;;;;25.00;47.62;101399.22;4992479;28;124605;-71
2021/08/09 10:05:12;;;;;;;3.78;1.20;;;;;;;24.95;47.90;101396.94;4990837;28;123984;-71
2021/08/09 10:07:41;;;;;;;3.22;1.13;;;;;;;24.95;47.60;101402.38;4976623;28;114568;-70
2021/08/09 10:10:09;;;;;;;3.90;1.00;;;;;;;24.97;47.63;101400.38;4980993;28;113680;-70
2021/08/09 10:12:39;;;;;;;2.83;1.27;;;;;;;25.01;47.54;101396.34;4978619;28;123111;-70
2021/08/09 10:15:07;;;;;;;3.40;1.20;;;;;;;25.09;47.76;101397.47;4980066;28;123086;-71
2021/08/09 10:17:36;;;;;;;2.88;1.02;;;;;;;25.20;47.22;101402.69;4963108;28;113034;-71
2021/08/09 10:20:07;;;;;;;2.85;1.10;;;;;;;25.30;46.94;101411.66;4987923;28;113710;-71
2021/08/09 10:22:35;;;;;;;2.95;1.00;;;;;;;25.37;46.68;101401.91;4981446;28;124738;-71
2021/08/09 10:25:05;;;;;;;3.05;1.35;;;;;;;25.43;46.97;101417.56;4977657;28;124663;-70
2021/08/09 10:27:46;;;;;;;3.15;1.00;;;;;;;25.48;46.20;101394.56;5011453;22;115096;-77
2021/08/09 10:30:14;;;;;;;1.48;0.80;;;;;;;25.45;46.38;101403.88;5025700;28;113376;-76
2021/08/09 10:32:51;;;;;;;3.55;1.05;;;;;;;25.47;46.40;101400.97;5009796;28;124742;-76
2021/08/09 10:35:36;;;;;;;2.40;0.85;;;;;;;25.51;46.29;101402.41;4990053;28;96877;-76
2021/08/09 10:38:14;;;;;;;2.47;1.08;;;;;;;25.50;45.83;101406.09;4973564;28;115892;-77
2021/08/09 10:41:08;;;;;;;2.47;1.00;;;;;;;25.51;46.18;101396.97;4991103;28;114676;-76
2021/08/09 10:43:42;;;;;;;2.63;0.98;;;;;;;25.53;45.90;101411.22;4991244;28;124218;-75
2021/08/09 10:46:38;;;;;;;2.13;0.80;;;;;;;25.53;45.88;101400.38;4989442;28;123674;-77
2021/08/09 10:49:06;;;;;;;3.25;0.93;;;;;;;25.60;45.58;101401.47;4973422;28;113317;-76
2021/08/09 10:51:52;;;;;;;1.90;0.88;;;;;;;25.66;46.30;101400.84;4991795;28;113701;-75
2021/08/09 10:54:26;;;;;;;;;;;;;;;25.75;46.66;101416.22;4985443;28;123401;-75
2021/08/09 10:56:55;;;;;;;2.22;0.90;;;;;;;25.87;45.44;101413.25;4982796;28;124195;-74
2021/08/09 10:59:40;;;;;;;1.35;0.65;;;;;;;25.84;45.29;101414.41;5001032;28;113994;-76
2021/08/09 11:02:18;;;;;;;4.35;1.05;;;;;;;25.82;45.05;101417.31;4984220;28;114353;-76
2021/08/09 11:05:14;;;;;;;3.22;1.00;;;;;;;25.79;45.29;101406.75;4976034;28;123895;-77
2021/08/09 11:07:42;;;;;;;;;;;;;;;25.75;45.94;101415.34;4976818;28;123767;-76
2021/08/09 11:10:09;;;;;;;3.08;1.10;;;;;;;25.70;45.11;101415.81;4991603;28;114298;-76
2021/08/09 11:12:59;;;;;;;2.28;1.08;;;;;;;25.60;44.80;101417.75;4980029;28;113752;-74
2021/08/09 11:15:28;;;;;;;1.73;0.95;;;;;;;25.50;44.65;101416.94;4979812;28;124119;-75
2021/08/09 11:17:59;;;;;;;3.63;1.23;;;;;;;25.38;44.58;101417.16;4975513;28;122805;-75
2021/08/09 11:20:29;;;;;;;3.17;1.05;;;;;;;25.29;44.71;101420.78;4959958;28;114034;-76
2021/08/09 11:23:05;;;;;;;3.03;1.13;;;;;;;25.18;45.03;101423.66;4969660;28;113555;-75
2021/08/09 11:25:36;;;;;;;2.70;1.10;;;;;;;25.06;45.78;101426.56;4968049;28;123601;-75
2021/08/09 11:28:13;;;;;;;2.80;1.13;;;;;;;24.99;46.28;101428.16;4975400;28;123813;-74
2021/08/09 11:30:54;;;;;;;2.25;0.88;;;;;;;24.94;46.64;101422.38;4988344;28;115469;-74
2021/08/09 11:33:34;;;;;;;1.90;0.95;;;;;;;24.87;46.41;101427.50;4972504;28;114252;-75